Terminal Aerodrome Forecast
Issued by NWS Green Bay, WI

Home | Current Version | Previous Version | Text Only | Print | Product List | Glossary On
Versions: 1 2 3 4 5 6 7 8 9 10 11 12 13 14 15 16 17 18 19 20 21 22 23 24 25 26 27 28 29 30 31 32 33 34 35 36 37 38 39 40 41 42 43 44 45 46 47 48 49 50
000
FTUS43 KGRB 202346
TAFGRB
TAF
KGRB 202346Z 2100/2124 04006KT 4SM -DZ BR OVC004
     FM210300 09004KT 3/4SM -DZ BR OVC003
     FM210700 08004KT 1/2SM -DZ FG OVC002
     FM211300 09005KT 3/4SM -RA BR OVC003
     FM212000 10005KT 1SM -DZ BR OVC003=

USA.gov is the U.S. government's official web portal to all federal, state and local government web resources and services.